createdAt,value
2023-02-03T00:01:41.966Z,4.70
2023-02-03T00:04:45.274Z,4.40
2023-02-03T00:07:48.945Z,5.00
2023-02-03T00:10:52.368Z,3.70
2023-02-03T00:13:55.582Z,3.80
2023-02-03T00:16:58.786Z,3.60
2023-02-03T00:20:01.982Z,3.50
2023-02-03T00:23:07.750Z,3.40
2023-02-03T00:26:15.576Z,2.90
2023-02-03T00:29:21.561Z,2.90
2023-02-03T00:32:24.861Z,2.50
2023-02-03T00:35:28.385Z,2.70
2023-02-03T00:38:31.665Z,2.70
2023-02-03T00:41:34.892Z,2.40
2023-02-03T00:44:38.084Z,2.20
2023-02-03T00:47:41.692Z,1.90
2023-02-03T00:50:47.244Z,2.20
2023-02-03T00:53:50.497Z,2.70
2023-02-03T00:56:53.771Z,2.10
2023-02-03T00:59:58.133Z,2.20
2023-02-03T01:03:01.455Z,2.30
2023-02-03T01:06:15.423Z,3.20
2023-02-03T01:09:18.633Z,2.40
2023-02-03T01:12:21.859Z,2.70
2023-02-03T01:15:25.104Z,2.50
2023-02-03T01:18:28.835Z,2.40
2023-02-03T01:21:32.307Z,2.60
2023-02-03T01:24:35.721Z,2.30
2023-02-03T01:27:38.987Z,2.10
2023-02-03T01:30:42.233Z,1.90
2023-02-03T01:33:48.224Z,1.90
2023-02-03T01:36:52.041Z,2.10
2023-02-03T01:39:55.361Z,1.80
2023-02-03T01:42:58.682Z,2.50
2023-02-03T01:46:07.497Z,2.60
2023-02-03T01:49:24.472Z,2.80
2023-02-03T01:52:28.145Z,2.10
2023-02-03T01:55:37.445Z,2.40
2023-02-03T01:58:42.633Z,2.60
2023-02-03T02:01:47.140Z,2.30
2023-02-03T02:05:11.178Z,2.20
2023-02-03T02:08:16.327Z,2.20
2023-02-03T02:11:23.552Z,1.80
2023-02-03T02:14:26.898Z,1.90
2023-02-03T02:17:50.308Z,1.70
2023-02-03T02:21:04.996Z,2.00
2023-02-03T02:24:17.140Z,2.30
2023-02-03T02:30:52.040Z,2.40
2023-02-03T02:34:07.988Z,1.70
2023-02-03T02:37:37.469Z,2.70
2023-02-03T02:40:53.972Z,3.10
2023-02-03T02:44:07.835Z,3.30
2023-02-03T02:47:16.714Z,3.00
2023-02-03T02:50:26.974Z,2.60
2023-02-03T02:53:35.692Z,2.50
2023-02-03T02:56:41.511Z,2.60
2023-02-03T02:59:46.751Z,3.20
2023-02-03T03:02:50.218Z,3.70
2023-02-03T03:06:02.106Z,3.50
2023-02-03T03:09:11.920Z,3.90
2023-02-03T03:12:19.023Z,3.80
2023-02-03T03:15:27.053Z,3.90
2023-02-03T03:18:37.438Z,4.30
2023-02-03T03:21:47.863Z,4.10
2023-02-03T03:24:55.864Z,4.10
2023-02-03T03:28:05.287Z,4.10
2023-02-03T03:31:08.698Z,4.60
2023-02-03T03:34:13.730Z,3.90
2023-02-03T03:37:26.282Z,3.70
2023-02-03T03:40:39.380Z,3.80
2023-02-03T03:43:47.391Z,4.10
2023-02-03T03:47:01.296Z,4.30
2023-02-03T03:50:08.335Z,3.70
2023-02-03T03:53:13.841Z,3.70
2023-02-03T03:56:24.536Z,3.40
2023-02-03T03:59:31.696Z,3.50
2023-02-03T04:02:39.304Z,3.60
2023-02-03T04:05:43.056Z,3.70
2023-02-03T04:08:46.271Z,3.20
2023-02-03T04:12:01.936Z,3.00
2023-02-03T04:15:05.518Z,3.30
2023-02-03T04:18:08.936Z,3.10
2023-02-03T04:21:12.130Z,3.40
2023-02-03T04:24:15.404Z,3.60
2023-02-03T04:27:18.686Z,3.80
2023-02-03T04:30:22.129Z,3.90
2023-02-03T04:33:25.352Z,4.40
2023-02-03T04:36:28.561Z,4.80
2023-02-03T04:39:31.756Z,4.60
2023-02-03T04:42:37.337Z,4.20
2023-02-03T04:45:40.694Z,4.50
2023-02-03T04:48:43.930Z,4.90
2023-02-03T04:51:49.354Z,6.20
2023-02-03T04:54:52.591Z,5.70
2023-02-03T04:58:00.232Z,6.40
2023-02-03T05:01:10.206Z,7.20
2023-02-03T05:04:13.474Z,6.90
2023-02-03T05:07:16.703Z,6.70
2023-02-03T05:10:19.980Z,7.30
2023-02-03T05:13:23.189Z,7.00
2023-02-03T05:16:26.595Z,7.60
2023-02-03T05:19:29.803Z,7.00
2023-02-03T05:22:35.320Z,6.90
2023-02-03T05:25:38.753Z,7.70
2023-02-03T05:28:42.070Z,7.30
2023-02-03T05:31:45.398Z,5.90
2023-02-03T05:34:48.672Z,6.20
2023-02-03T05:37:51.828Z,6.70
2023-02-03T05:41:13.513Z,6.90
2023-02-03T05:44:16.761Z,5.90
2023-02-03T05:47:20.013Z,7.00
2023-02-03T05:50:23.408Z,7.90
2023-02-03T05:53:27.696Z,9.70
2023-02-03T05:56:30.986Z,9.20
2023-02-03T05:59:34.229Z,9.50
2023-02-03T06:02:37.473Z,7.40
2023-02-03T06:05:41.436Z,9.10
2023-02-03T06:08:45.186Z,8.80
2023-02-03T06:11:48.410Z,10.40
2023-02-03T06:14:51.570Z,8.70
2023-02-03T06:17:54.878Z,7.70
2023-02-03T06:20:58.060Z,8.60
2023-02-03T06:24:01.345Z,9.10
2023-02-03T06:27:04.546Z,10.00
2023-02-03T06:30:09.355Z,9.10
2023-02-03T06:33:12.657Z,11.10
2023-02-03T06:36:15.892Z,10.30
2023-02-03T06:39:19.091Z,11.30
2023-02-03T06:42:22.319Z,10.40
2023-02-03T06:45:25.927Z,10.00
2023-02-03T06:48:29.223Z,10.60
2023-02-03T06:51:32.466Z,10.50
2023-02-03T06:54:36.072Z,9.70
2023-02-03T06:57:47.209Z,9.80
2023-02-03T07:00:51.530Z,9.60
2023-02-03T07:03:57.889Z,8.80
2023-02-03T07:07:01.097Z,10.80
2023-02-03T07:10:04.351Z,11.00
2023-02-03T07:13:08.592Z,10.00
2023-02-03T07:16:12.005Z,10.20
2023-02-03T07:19:15.368Z,10.50
2023-02-03T07:22:18.777Z,10.30
2023-02-03T07:25:23.375Z,9.20
2023-02-03T07:28:26.859Z,8.90
2023-02-03T07:31:30.371Z,9.70
2023-02-03T07:34:33.861Z,9.10
2023-02-03T07:37:37.183Z,9.10
2023-02-03T07:40:40.707Z,9.00
2023-02-03T07:43:43.947Z,8.80
2023-02-03T07:46:47.383Z,9.80
2023-02-03T07:49:50.706Z,9.40
2023-02-03T07:52:55.590Z,9.00
2023-02-03T07:56:03.103Z,8.60
2023-02-03T07:59:06.816Z,8.20
2023-02-03T08:02:11.498Z,9.30
2023-02-03T08:05:15.876Z,9.70
2023-02-03T08:08:19.276Z,9.20
2023-02-03T08:11:22.670Z,8.70
2023-02-03T08:14:26.228Z,8.40
2023-02-03T08:17:29.560Z,8.30
2023-02-03T08:20:32.972Z,7.80
2023-02-03T08:23:36.422Z,7.70
2023-02-03T08:26:41.944Z,7.90
2023-02-03T08:29:50.148Z,8.20
2023-02-03T08:32:53.475Z,7.90
2023-02-03T08:35:57.095Z,8.10
2023-02-03T08:39:00.502Z,8.80
2023-02-03T08:42:04.922Z,8.60
2023-02-03T08:45:08.631Z,8.30
2023-02-03T08:48:12.141Z,7.80
2023-02-03T08:51:17.131Z,8.30
2023-02-03T08:54:20.496Z,8.10
2023-02-03T08:57:23.797Z,8.20
2023-02-03T09:00:27.673Z,6.90
2023-02-03T09:03:31.293Z,6.30
2023-02-03T09:06:35.679Z,6.20
2023-02-03T09:09:39.217Z,7.20
2023-02-03T09:12:46.349Z,8.00
2023-02-03T09:15:49.676Z,8.20
2023-02-03T09:18:53.019Z,9.30
2023-02-03T09:22:00.064Z,9.40
2023-02-03T09:25:03.917Z,9.80
2023-02-03T09:28:07.280Z,10.40
2023-02-03T09:31:13.909Z,11.00
2023-02-03T09:34:20.923Z,10.60
2023-02-03T09:37:24.180Z,11.00
2023-02-03T09:40:35.441Z,9.60
2023-02-03T09:43:53.595Z,9.10
2023-02-03T09:47:01.098Z,9.80
2023-02-03T09:50:27.397Z,10.20
2023-02-03T09:53:45.317Z,9.70
2023-02-03T09:56:55.643Z,10.00
2023-02-03T10:00:06.694Z,11.50
2023-02-03T10:03:25.007Z,11.20
2023-02-03T10:06:40.547Z,11.70
2023-02-03T10:10:03.417Z,11.20
2023-02-03T10:13:13.425Z,10.90
2023-02-03T10:16:37.076Z,10.60
2023-02-03T10:19:51.843Z,10.40
2023-02-03T10:23:01.844Z,10.40
2023-02-03T10:26:12.108Z,11.30
2023-02-03T10:29:34.781Z,11.30
2023-02-03T10:35:50.446Z,10.40
2023-02-03T10:42:16.813Z,10.50
2023-02-03T10:45:21.275Z,10.30
2023-02-03T10:48:25.644Z,10.30
2023-02-03T10:51:38.957Z,9.80
2023-02-03T10:54:42.280Z,9.00
2023-02-03T10:57:45.753Z,8.70
2023-02-03T11:01:04.456Z,7.30
2023-02-03T11:04:24.681Z,7.30
2023-02-03T11:07:30.702Z,7.40
2023-02-03T11:10:40.816Z,7.60
2023-02-03T11:13:44.505Z,6.80
2023-02-03T11:16:49.396Z,7.00
2023-02-03T11:19:55.780Z,7.60
2023-02-03T11:23:00.671Z,7.40
2023-02-03T11:26:15.233Z,7.40
2023-02-03T11:29:41.205Z,6.90
2023-02-03T11:32:48.037Z,6.90
2023-02-03T11:35:59.557Z,7.70
2023-02-03T11:39:20.403Z,8.60
2023-02-03T11:42:25.064Z,9.20
2023-02-03T11:45:28.408Z,8.80
2023-02-03T11:49:01.992Z,9.20
2023-02-03T11:52:29.824Z,9.70
2023-02-03T11:56:21.138Z,9.00
2023-02-03T11:59:38.103Z,8.90
2023-02-03T12:03:07.552Z,9.20
2023-02-03T12:06:22.299Z,10.30
2023-02-03T12:10:02.751Z,10.50
2023-02-03T12:13:30.846Z,11.40
2023-02-03T12:17:01.972Z,12.10
2023-02-03T12:20:20.370Z,13.00
2023-02-03T12:23:33.203Z,11.50
2023-02-03T12:26:49.782Z,10.20
2023-02-03T12:30:02.200Z,9.70
2023-02-03T12:36:21.382Z,7.60
2023-02-03T12:39:36.786Z,7.80
2023-02-03T12:42:46.474Z,8.10
2023-02-03T12:45:58.214Z,6.80
2023-02-03T12:49:15.604Z,9.50
2023-02-03T12:52:49.649Z,7.00
2023-02-03T12:55:56.765Z,7.70
2023-02-03T12:59:06.778Z,7.30
2023-02-03T13:02:28.254Z,7.20
2023-02-03T13:25:19.682Z,6.40
2023-02-03T13:28:35.235Z,6.70
2023-02-03T13:31:38.922Z,6.20
2023-02-03T13:35:06.247Z,6.20
2023-02-03T13:38:38.711Z,6.10
2023-02-03T13:41:53.312Z,5.60
2023-02-03T13:45:17.492Z,5.60
2023-02-03T13:48:24.669Z,5.60
2023-02-03T13:51:34.836Z,5.70
2023-02-03T13:54:44.500Z,6.10
2023-02-03T13:57:52.108Z,6.10
2023-02-03T14:00:56.521Z,6.10
2023-02-03T14:04:00.925Z,7.50
2023-02-03T14:07:24.922Z,7.40
2023-02-03T14:10:29.339Z,6.90
2023-02-03T14:13:34.889Z,6.70
2023-02-03T14:16:39.354Z,7.60
2023-02-03T14:19:52.224Z,7.00
2023-02-03T14:23:07.692Z,6.60
2023-02-03T14:26:20.332Z,6.70
2023-02-03T14:29:30.917Z,6.50
2023-02-03T14:32:55.605Z,7.40
2023-02-03T14:36:00.511Z,10.00
2023-02-03T14:39:20.077Z,10.30
2023-02-03T14:42:36.096Z,10.10
2023-02-03T14:46:16.110Z,12.40
2023-02-03T14:49:22.526Z,10.00
2023-02-03T14:52:52.669Z,11.20
2023-02-03T14:56:16.592Z,9.40
2023-02-03T14:59:25.365Z,9.00
2023-02-03T15:02:31.147Z,9.30
2023-02-03T15:05:42.067Z,9.80
2023-02-03T15:08:47.150Z,7.80
2023-02-03T15:11:50.623Z,7.00
2023-02-03T15:14:54.173Z,6.60
2023-02-03T15:18:00.139Z,7.40
2023-02-03T15:21:04.642Z,7.50
2023-02-03T15:24:21.535Z,7.40
2023-02-03T15:27:30.213Z,7.40
2023-02-03T15:30:33.768Z,8.10
2023-02-03T15:33:39.751Z,8.90
2023-02-03T15:36:48.557Z,7.30
2023-02-03T15:40:08.997Z,6.90
2023-02-03T15:43:27.457Z,6.90
2023-02-03T15:46:41.202Z,6.70
2023-02-03T15:49:46.200Z,7.10
2023-02-03T15:52:53.448Z,7.90
2023-02-03T15:56:03.890Z,6.40
2023-02-03T15:59:23.722Z,5.90
2023-02-03T16:02:44.063Z,5.50
2023-02-03T16:05:50.824Z,6.80
2023-02-03T16:08:55.534Z,6.20
2023-02-03T16:12:15.606Z,5.50
2023-02-03T16:15:24.395Z,6.20
2023-02-03T16:18:27.912Z,6.10
2023-02-03T16:21:33.106Z,5.90
2023-02-03T16:24:38.450Z,5.00
2023-02-03T16:27:45.038Z,5.20
2023-02-03T16:31:17.087Z,5.50
2023-02-03T16:34:38.793Z,5.50
2023-02-03T16:38:03.747Z,5.20
2023-02-03T16:41:35.234Z,6.00
2023-02-03T16:44:57.394Z,5.80
2023-02-03T16:48:20.353Z,5.80
2023-02-03T16:51:42.806Z,7.60
2023-02-03T16:54:46.333Z,7.00
2023-02-03T16:57:51.470Z,6.20
2023-02-03T17:00:55.383Z,6.20
2023-02-03T17:03:58.668Z,6.00
2023-02-03T17:07:03.060Z,7.40
2023-02-03T17:10:06.790Z,8.10
2023-02-03T17:13:10.887Z,8.00
2023-02-03T17:16:17.335Z,6.80
2023-02-03T17:19:20.761Z,6.90
2023-02-03T17:22:24.092Z,7.20
2023-02-03T17:25:27.847Z,7.00
2023-02-03T17:28:31.722Z,6.40
2023-02-03T17:31:35.160Z,5.90
2023-02-03T17:34:38.630Z,7.30
2023-02-03T17:37:41.962Z,6.90
2023-02-03T17:54:07.803Z,4.80
2023-02-03T17:57:11.093Z,4.80
2023-02-03T18:00:14.770Z,5.90
2023-02-03T18:03:18.185Z,6.00
2023-02-03T18:06:23.544Z,6.90
2023-02-03T18:09:26.965Z,7.00
2023-02-03T18:12:30.606Z,5.60
2023-02-03T18:15:33.853Z,5.90
2023-02-03T18:18:38.891Z,5.60
2023-02-03T18:21:43.274Z,6.40
2023-02-03T18:39:07.245Z,7.00
2023-02-03T18:42:11.007Z,7.40
2023-02-03T18:45:14.210Z,6.20
2023-02-03T18:48:17.530Z,5.90
2023-02-03T18:51:22.447Z,5.50
2023-02-03T18:54:25.805Z,5.70
2023-02-03T18:57:29.086Z,5.30
2023-02-03T19:00:32.648Z,5.40
2023-02-03T19:03:38.004Z,5.90
2023-02-03T19:06:45.632Z,5.10
2023-02-03T19:09:48.882Z,4.90
2023-02-03T19:12:52.445Z,4.40
2023-02-03T19:15:55.738Z,4.80
2023-02-03T19:18:59.378Z,5.20
2023-02-03T19:22:02.957Z,3.90
2023-02-03T19:25:06.391Z,4.50
2023-02-03T19:28:14.237Z,5.00
2023-02-03T19:31:20.813Z,5.90
2023-02-03T19:34:24.132Z,6.20
2023-02-03T19:37:27.445Z,7.40
2023-02-03T19:40:31.317Z,6.10
2023-02-03T19:43:34.861Z,6.40
2023-02-03T19:46:38.350Z,6.40
2023-02-03T19:49:41.692Z,6.40
2023-02-03T19:52:45.208Z,4.80
2023-02-03T19:55:48.749Z,3.70
2023-02-03T19:58:54.197Z,4.70
2023-02-03T20:01:59.800Z,4.50
2023-02-03T20:05:11.148Z,4.30
2023-02-03T20:08:16.771Z,4.50
2023-02-03T20:11:20.547Z,4.00
2023-02-03T20:14:24.168Z,5.20
2023-02-03T20:17:42.963Z,5.30
2023-02-03T20:20:55.516Z,5.40
2023-02-03T20:23:58.913Z,5.90
2023-02-03T20:27:03.449Z,6.10
2023-02-03T20:30:07.495Z,5.60
2023-02-03T20:33:10.948Z,5.80
2023-02-03T20:36:14.228Z,6.50
2023-02-03T20:39:22.185Z,6.30
2023-02-03T20:42:25.568Z,6.20
2023-02-03T20:45:29.861Z,6.10
2023-02-03T20:48:33.385Z,6.20
2023-02-03T20:51:36.760Z,5.70
2023-02-03T20:54:40.559Z,5.00
2023-02-03T20:57:45.103Z,4.50
2023-02-03T21:00:49.613Z,4.20
2023-02-03T21:04:12.055Z,5.90
2023-02-03T21:07:18.132Z,5.10
2023-02-03T21:10:23.892Z,4.10
2023-02-03T21:13:30.001Z,4.10
2023-02-03T21:16:38.653Z,4.80
2023-02-03T21:19:42.473Z,4.20
2023-02-03T21:22:45.755Z,4.50
2023-02-03T21:25:49.026Z,4.70
2023-02-03T21:28:59.168Z,5.00
2023-02-03T21:32:04.510Z,4.20
2023-02-03T21:35:26.352Z,4.10
2023-02-03T21:38:33.158Z,4.50
2023-02-03T21:41:36.578Z,4.30
2023-02-03T21:44:40.691Z,3.90
2023-02-03T21:47:45.891Z,4.40
2023-02-03T21:50:49.158Z,5.00
2023-02-03T21:54:16.420Z,4.40
2023-02-03T21:57:20.929Z,3.30
2023-02-03T22:00:43.445Z,3.30
2023-02-03T22:06:56.109Z,3.30
2023-02-03T22:09:59.501Z,3.90
2023-02-03T22:13:02.909Z,4.10
2023-02-03T22:16:07.158Z,4.60
2023-02-03T22:19:11.439Z,4.00
2023-02-03T22:22:14.911Z,4.20
2023-02-03T22:25:18.261Z,5.00
2023-02-03T22:28:21.579Z,4.60
2023-02-03T22:31:25.138Z,3.70
2023-02-03T22:34:35.984Z,4.00
2023-02-03T22:37:40.300Z,2.90
2023-02-03T22:40:44.628Z,2.60
2023-02-03T22:43:48.087Z,2.70
2023-02-03T22:46:51.454Z,2.60
2023-02-03T22:49:54.723Z,2.80
2023-02-03T22:52:58.098Z,2.30
2023-02-03T22:56:01.515Z,2.40
2023-02-03T22:59:04.813Z,2.80
2023-02-03T23:02:08.334Z,2.60
2023-02-03T23:05:11.728Z,2.40
2023-02-03T23:08:14.966Z,3.20
2023-02-03T23:11:18.699Z,2.60
2023-02-03T23:14:21.935Z,2.30
2023-02-03T23:17:25.734Z,2.20
2023-02-03T23:20:29.494Z,2.40
2023-02-03T23:23:33.072Z,1.80
2023-02-03T23:26:36.460Z,2.30
2023-02-03T23:29:39.785Z,2.40
2023-02-03T23:32:43.085Z,2.00
2023-02-03T23:35:46.373Z,1.70
2023-02-03T23:38:49.553Z,2.00
2023-02-03T23:41:52.825Z,1.70
2023-02-03T23:44:56.042Z,1.80
2023-02-03T23:47:59.419Z,1.50
2023-02-03T23:51:02.619Z,1.80
2023-02-03T23:54:05.846Z,1.90
2023-02-03T23:57:09.172Z,1.90
